Time;durP1;ratioP1;P1;durP2;ratioP2;P2;SDS_P1;SDS_P2;PMS_P1;PMS_P2;Temp;Humidity;BMP_temperature;BMP_pressure;BME280_temperature;BME280_humidity;BME280_pressure;Samples;Min_cycle;Max_cycle;Signal;HPM_P1;HPM_P2
2022/07/26 00:02:14;;;;;;;7.17;5.78;;;;;;;17.77;100.00;98275.30;1715159;84;21505;-80
2022/07/26 00:04:42;;;;;;;8.33;5.83;;;;;;;17.76;100.00;98274.48;1715257;84;21003;-80
2022/07/26 00:07:09;;;;;;;7.90;5.78;;;;;;;17.76;100.00;98263.55;1715139;84;21039;-80
2022/07/26 00:09:38;;;;;;;7.67;5.50;;;;;;;17.75;100.00;98255.61;1715332;84;21043;-80
2022/07/26 00:12:07;;;;;;;9.28;5.83;;;;;;;17.75;100.00;98254.24;1715193;84;21039;-80
2022/07/26 00:14:33;;;;;;;10.68;5.87;;;;;;;17.73;100.00;98253.14;1715325;84;20976;-80
2022/07/26 00:17:00;;;;;;;8.38;5.70;;;;;;;17.74;100.00;98256.69;1715556;84;21437;-80
2022/07/26 00:19:27;;;;;;;7.65;5.42;;;;;;;17.74;100.00;98254.80;1715447;84;21010;-80
2022/07/26 00:24:39;;;;;;;9.00;6.22;;;;;;;17.73;100.00;98249.03;1715197;84;21046;-80
2022/07/26 00:27:06;;;;;;;11.05;6.53;;;;;;;17.71;100.00;98242.20;1715351;84;21046;-80
2022/07/26 00:29:32;;;;;;;10.35;6.47;;;;;;;17.70;100.00;98241.91;1715485;84;21046;-80
2022/07/26 00:31:59;;;;;;;11.12;6.85;;;;;;;17.68;100.00;98245.44;1715231;84;21493;-80
2022/07/26 00:34:26;;;;;;;12.40;6.55;;;;;;;17.65;100.00;98240.78;1715100;84;21031;-80
2022/07/26 00:36:53;;;;;;;8.45;6.20;;;;;;;17.62;100.00;98239.12;1715191;84;20995;-80
2022/07/26 00:39:20;;;;;;;8.93;5.78;;;;;;;17.59;100.00;98228.70;1715421;84;21039;-80
2022/07/26 00:41:47;;;;;;;9.83;5.95;;;;;;;17.57;100.00;98234.97;1715407;84;21504;-80
2022/07/26 00:44:14;;;;;;;8.63;5.12;;;;;;;17.53;100.00;98228.36;1715336;84;21478;-81
2022/07/26 00:46:42;;;;;;;7.50;5.53;;;;;;;17.50;100.00;98228.35;1715315;84;20992;-80
2022/07/26 00:49:10;;;;;;;8.23;6.05;;;;;;;17.49;100.00;98229.98;1715330;84;21019;-81
2022/07/26 00:51:36;;;;;;;8.33;5.72;;;;;;;17.46;100.00;98221.22;1715382;84;21035;-80
2022/07/26 00:54:04;;;;;;;8.18;5.75;;;;;;;17.43;100.00;98219.00;1715043;84;21517;-80
2022/07/26 00:56:32;;;;;;;7.33;5.80;;;;;;;17.42;100.00;98220.62;1715476;84;21568;-80
2022/07/26 00:59:00;;;;;;;10.48;6.35;;;;;;;17.40;100.00;98219.52;1715031;84;21059;-80
2022/07/26 01:01:26;;;;;;;8.43;5.97;;;;;;;17.38;100.00;98209.95;1715356;84;20995;-80
2022/07/26 01:03:53;;;;;;;9.45;6.00;;;;;;;17.38;100.00;98208.58;1715242;84;20983;-80
2022/07/26 01:06:20;;;;;;;9.23;5.92;;;;;;;17.36;100.00;98204.73;1715062;84;20996;-80
2022/07/26 01:08:47;;;;;;;9.10;5.97;;;;;;;17.35;100.00;98200.38;1715272;84;21509;-80
2022/07/26 01:11:14;;;;;;;9.13;6.00;;;;;;;17.33;100.00;98200.34;1715075;84;21019;-80
2022/07/26 01:13:48;;;;;;;7.37;6.22;;;;;;;17.31;100.00;98196.50;1715381;84;21003;-80
2022/07/26 01:16:15;;;;;;;11.05;6.15;;;;;;;17.30;100.00;98197.59;1715299;83;21058;-80
2022/07/26 01:18:42;;;;;;;8.70;6.12;;;;;;;17.27;100.00;98194.02;1716924;84;21027;-79
2022/07/26 01:21:09;;;;;;;7.90;6.12;;;;;;;17.24;100.00;98195.89;1716810;84;21567;-81
2022/07/26 01:23:37;;;;;;;8.95;6.20;;;;;;;17.22;100.00;98189.31;1712097;83;21020;-81
2022/07/26 01:26:04;;;;;;;10.45;6.40;;;;;;;17.20;100.00;98185.21;1697400;84;21008;-81
2022/07/26 01:28:36;;;;;;;9.33;6.50;;;;;;;17.18;100.00;98184.09;1697587;84;21000;-81
2022/07/26 01:31:05;;;;;;;8.70;6.03;;;;;;;17.17;100.00;98176.98;1697305;84;21501;-81
2022/07/26 01:33:32;;;;;;;9.98;6.30;;;;;;;17.16;100.00;98169.89;1697487;84;21008;-82
2022/07/26 01:36:00;;;;;;;8.30;6.08;;;;;;;17.15;100.00;98172.88;1697251;84;21051;-81
2022/07/26 01:38:27;;;;;;;7.40;5.92;;;;;;;17.12;100.00;98171.47;1697533;84;21056;-81
2022/07/26 01:40:53;;;;;;;9.45;6.35;;;;;;;17.09;100.00;98172.01;1697507;84;21067;-81
2022/07/26 01:43:20;;;;;;;10.03;6.30;;;;;;;17.07;100.00;98161.89;1697321;84;21027;-81
2022/07/26 01:45:47;;;;;;;9.98;5.75;;;;;;;17.06;100.00;98164.33;1697361;84;21500;-81
2022/07/26 01:48:14;;;;;;;7.72;5.92;;;;;;;17.05;100.00;98161.30;1697592;84;21008;-81
2022/07/26 01:50:41;;;;;;;9.68;6.37;;;;;;;17.04;100.00;98156.94;1697606;84;21024;-81
2022/07/26 01:53:08;;;;;;;8.23;6.03;;;;;;;17.05;100.00;98159.94;1697255;84;21000;-81
2022/07/26 01:55:34;;;;;;;8.40;6.40;;;;;;;17.03;100.00;98154.77;1697620;84;21020;-82
2022/07/26 01:58:03;;;;;;;11.03;7.00;;;;;;;17.02;100.00;98150.38;1697441;84;21067;-81
2022/07/26 02:00:31;;;;;;;9.40;6.37;;;;;;;17.00;100.00;98136.71;1697548;84;21023;-82
2022/07/26 02:02:57;;;;;;;15.03;6.55;;;;;;;16.99;100.00;98141.87;1697674;84;21008;-81
2022/07/26 02:05:24;;;;;;;9.68;6.50;;;;;;;16.97;100.00;98132.58;1697569;84;21035;-81
2022/07/26 02:07:51;;;;;;;8.95;6.22;;;;;;;16.94;100.00;98139.91;1697507;84;21031;-81
2022/07/26 02:10:18;;;;;;;9.25;6.20;;;;;;;16.93;100.00;98135.55;1697712;84;21024;-81
2022/07/26 02:12:44;;;;;;;9.58;6.35;;;;;;;16.90;100.00;98130.60;1697523;84;21020;-81
2022/07/26 02:15:12;;;;;;;7.72;6.25;;;;;;;16.89;100.00;98133.03;1697571;84;20960;-81
2022/07/26 02:17:39;;;;;;;10.05;6.35;;;;;;;16.87;100.00;98116.09;1697567;84;21027;-81
2022/07/26 02:20:07;;;;;;;11.80;6.65;;;;;;;16.85;100.00;98120.45;1697587;84;20987;-80
2022/07/26 02:22:34;;;;;;;9.23;6.20;;;;;;;16.85;100.00;98114.17;1697554;84;21055;-81
2022/07/26 02:25:00;;;;;;;8.45;5.85;;;;;;;16.84;100.00;98119.37;1699733;84;21063;-81
2022/07/26 02:27:27;;;;;;;9.83;6.28;;;;;;;16.81;100.00;98100.19;1700463;84;20991;-81
2022/07/26 02:29:54;;;;;;;7.67;5.90;;;;;;;16.81;100.00;98103.47;1700801;84;21004;-81
2022/07/26 02:32:20;;;;;;;7.80;5.65;;;;;;;16.81;100.00;98106.20;1700855;84;21502;-81
2022/07/26 02:34:47;;;;;;;8.65;6.08;;;;;;;16.79;100.00;98105.64;1700688;84;21048;-81
2022/07/26 02:37:14;;;;;;;8.55;5.83;;;;;;;16.78;100.00;98102.06;1700828;84;21509;-81
2022/07/26 02:39:40;;;;;;;8.28;6.03;;;;;;;16.79;100.00;98109.73;1700772;84;20992;-81
2022/07/26 02:42:07;;;;;;;10.18;6.00;;;;;;;16.78;100.00;98097.16;1700699;84;21063;-81
2022/07/26 02:44:35;;;;;;;7.65;6.03;;;;;;;16.78;100.00;98103.98;1700795;84;21011;-82
2022/07/26 02:47:02;;;;;;;9.18;6.17;;;;;;;16.77;100.00;98103.69;1700861;84;21039;-81
2022/07/26 02:49:28;;;;;;;8.00;5.62;;;;;;;16.75;100.00;98090.33;1700768;84;21530;-81
2022/07/26 02:51:55;;;;;;;9.25;6.10;;;;;;;16.76;100.00;98099.33;1700754;84;21039;-81
2022/07/26 02:54:22;;;;;;;9.78;6.28;;;;;;;16.77;100.00;98098.23;1700833;84;21478;-81
2022/07/26 02:56:49;;;;;;;8.70;5.97;;;;;;;16.78;100.00;98102.61;1700756;84;21030;-81
2022/07/26 02:59:15;;;;;;;9.40;6.28;;;;;;;16.79;100.00;98100.18;1700742;84;21015;-81
2022/07/26 03:01:42;;;;;;;7.75;5.72;;;;;;;16.77;100.00;98099.59;1700760;84;21080;-81
2022/07/26 03:04:09;;;;;;;8.08;6.00;;;;;;;16.78;100.00;98103.43;1700820;84;21066;-80
2022/07/26 03:06:35;;;;;;;10.00;5.53;;;;;;;16.78;100.00;98100.70;1700815;84;20976;-81
2022/07/26 03:09:02;;;;;;;11.28;6.10;;;;;;;16.80;100.00;98104.54;1700871;84;21027;-81
2022/07/26 03:11:29;;;;;;;11.03;5.90;;;;;;;16.82;100.00;98109.19;1700811;84;21068;-81
2022/07/26 03:13:56;;;;;;;10.98;6.10;;;;;;;16.83;100.00;98102.66;1700795;84;21023;-80
2022/07/26 03:16:23;;;;;;;7.45;6.00;;;;;;;16.84;100.00;98096.17;1701235;84;20999;-81
2022/07/26 03:18:49;;;;;;;11.33;7.90;;;;;;;16.84;100.00;98100.27;1700750;84;21477;-81
2022/07/26 03:21:16;;;;;;;14.13;9.55;;;;;;;16.84;100.00;98092.89;1700779;84;21087;-81
2022/07/26 03:23:43;;;;;;;13.08;8.80;;;;;;;16.86;100.00;98103.55;1700684;84;20960;-80
2022/07/26 03:26:09;;;;;;;10.38;7.85;;;;;;;16.86;100.00;98096.17;1697877;84;21047;-80
2022/07/26 03:28:38;;;;;;;12.20;6.80;;;;;;;16.87;100.00;98092.89;1697527;84;21505;-80
2022/07/26 03:31:05;;;;;;;10.43;6.58;;;;;;;16.89;100.00;98087.48;1697566;84;21001;-81
2022/07/26 03:33:32;;;;;;;9.15;6.10;;;;;;;16.91;100.00;98085.01;1697710;84;21000;-81
2022/07/26 03:35:58;;;;;;;11.75;6.12;;;;;;;16.93;100.00;98083.69;1697467;84;21043;-80
2022/07/26 03:38:25;;;;;;;10.28;6.35;;;;;;;16.93;100.00;98085.05;1697611;84;21011;-82
2022/07/26 03:40:52;;;;;;;8.88;6.20;;;;;;;16.95;100.00;98089.70;1697447;84;21019;-81
2022/07/26 03:43:18;;;;;;;8.43;6.05;;;;;;;16.96;100.00;98093.25;1697244;84;21015;-80
2022/07/26 03:45:45;;;;;;;8.00;5.97;;;;;;;16.98;100.00;98090.55;1697530;84;21015;-80
2022/07/26 03:48:12;;;;;;;11.78;6.22;;;;;;;16.99;100.00;98085.36;1697599;84;21028;-80
2022/07/26 03:50:38;;;;;;;9.45;5.92;;;;;;;17.01;100.00;98082.38;1697475;84;21018;-81
2022/07/26 03:53:05;;;;;;;7.62;5.90;;;;;;;17.02;100.00;98084.03;1697583;84;20996;-81
2022/07/26 03:58:18;;;;;;;10.48;6.78;;;;;;;17.08;100.00;98078.88;1697586;84;21000;-80
2022/07/26 04:00:45;;;;;;;8.53;6.15;;;;;;;17.14;100.00;98089.29;1697429;84;21002;-79
2022/07/26 04:03:12;;;;;;;10.98;6.25;;;;;;;17.17;100.00;98088.22;1697401;84;21063;-79
2022/07/26 04:05:39;;;;;;;14.65;6.55;;;;;;;17.22;100.00;98084.17;1697453;84;21062;-79
2022/07/26 04:08:05;;;;;;;13.35;6.53;;;;;;;17.29;100.00;98089.97;1697515;84;21478;-80
2022/07/26 04:10:32;;;;;;;9.28;6.40;;;;;;;17.34;100.00;98084.54;1697473;84;21000;-79
2022/07/26 04:12:59;;;;;;;9.03;6.40;;;;;;;17.40;100.00;98080.73;1697957;84;21541;-82
2022/07/26 04:15:25;;;;;;;10.70;6.53;;;;;;;17.46;100.00;98075.05;1698106;84;21004;-80
2022/07/26 04:17:53;;;;;;;10.80;6.58;;;;;;;17.53;100.00;98072.09;1698055;84;21000;-81
2022/07/26 04:20:20;;;;;;;9.70;6.55;;;;;;;17.59;100.00;98069.66;1698213;84;21066;-79
2022/07/26 04:22:47;;;;;;;8.78;6.47;;;;;;;17.67;100.00;98072.45;1697825;84;21051;-81
2022/07/26 04:25:14;;;;;;;10.82;6.58;;;;;;;17.75;100.00;98069.74;1700201;83;21063;-81
2022/07/26 04:27:41;;;;;;;9.28;6.58;;;;;;;17.83;100.00;98065.96;1702216;84;21020;-81
2022/07/26 04:30:09;;;;;;;9.28;6.97;;;;;;;17.92;100.00;98066.30;1702418;84;21051;-80
2022/07/26 04:32:36;;;;;;;10.05;6.50;;;;;;;18.02;100.00;98067.72;1702261;84;21035;-80
2022/07/26 04:35:04;;;;;;;8.98;6.15;;;;;;;18.15;100.00;98061.44;1703570;84;20987;-79
2022/07/26 04:37:42;;;;;;;10.90;6.67;;;;;;;18.31;100.00;98060.41;1703041;84;21023;-80
2022/07/26 04:40:11;;;;;;;10.43;6.20;;;;;;;18.49;100.00;98056.34;1699263;84;21038;-82
2022/07/26 04:42:37;;;;;;;9.25;6.28;;;;;;;18.67;100.00;98055.55;1700186;84;21509;-75
2022/07/26 04:45:05;;;;;;;7.75;5.90;;;;;;;18.84;100.00;98057.51;1698616;83;21006;-77
2022/07/26 04:47:33;;;;;;;14.15;7.70;;;;;;;19.00;100.00;98055.59;1700356;84;21052;-75
2022/07/26 04:49:59;;;;;;;23.60;20.27;;;;;;;19.19;100.00;98060.50;1698107;84;20991;-75
2022/07/26 04:52:26;;;;;;;130.05;116.35;;;;;;;19.34;100.00;98069.52;1696177;85;21058;-75
2022/07/26 04:54:53;;;;;;;35.40;28.42;;;;;;;19.51;100.00;98080.72;1698538;84;20979;-75
2022/07/26 04:57:20;;;;;;;21.57;14.70;;;;;;;19.71;100.00;98092.20;1719143;83;21035;-77
2022/07/26 04:59:46;;;;;;;12.28;7.87;;;;;;;19.93;100.00;98100.66;1723982;82;20969;-75
2022/07/26 05:02:14;;;;;;;25.20;18.77;;;;;;;20.16;100.00;98115.66;1717207;82;20990;-75
2022/07/26 05:04:41;;;;;;;120.72;107.80;;;;;;;20.38;100.00;98128.47;1721585;82;21012;-76
2022/07/26 05:07:08;;;;;;;19.42;14.70;;;;;;;20.62;100.00;98154.72;1715756;84;20985;-76
2022/07/26 05:09:37;;;;;;;16.32;9.35;;;;;;;20.82;100.00;98178.52;1705819;83;21057;-78
2022/07/26 05:12:04;;;;;;;13.13;8.05;;;;;;;20.99;100.00;98215.21;1714885;84;21056;-75
2022/07/26 05:14:31;;;;;;;163.40;135.80;;;;;;;21.17;100.00;98249.44;1714186;84;21057;-77
2022/07/26 05:16:58;;;;;;;28.52;19.90;;;;;;;21.34;100.00;98275.75;1705682;82;20981;-78
2022/07/26 05:19:25;;;;;;;137.40;123.47;;;;;;;21.52;100.00;98303.97;1715753;84;21021;-75
2022/07/26 05:21:51;;;;;;;26.62;20.20;;;;;;;21.72;100.00;98322.25;1723131;82;21651;-81
2022/07/26 05:24:18;;;;;;;46.60;40.48;;;;;;;22.03;100.00;98341.28;1711664;84;21469;-77
2022/07/26 05:26:47;;;;;;;29.80;23.55;;;;;;;22.35;100.00;98352.33;1719892;83;21004;-78
2022/07/26 05:29:14;;;;;;;15.45;11.20;;;;;;;22.69;100.00;98367.97;1720189;83;20994;-80
2022/07/26 05:31:41;;;;;;;15.13;10.85;;;;;;;23.03;100.00;98387.14;1721004;82;21000;-77
2022/07/26 05:34:07;;;;;;;18.17;10.82;;;;;;;23.34;100.00;98412.17;1719747;83;20970;-78
2022/07/26 05:36:34;;;;;;;13.20;7.58;;;;;;;23.55;100.00;98443.08;1724836;83;21056;-76
2022/07/26 05:39:01;;;;;;;10.55;7.22;;;;;;;23.60;100.00;98480.27;1722181;83;20970;-75
2022/07/26 05:41:28;;;;;;;9.85;6.60;;;;;;;23.67;100.00;98508.31;1722549;83;21065;-79
2022/07/26 05:43:54;;;;;;;10.78;6.65;;;;;;;23.78;100.00;98534.69;1720425;83;20970;-75
2022/07/26 05:46:21;;;;;;;11.22;6.58;;;;;;;23.80;100.00;98564.22;1723398;83;21475;-80
2022/07/26 05:48:48;;;;;;;47.50;42.35;;;;;;;23.75;100.00;98582.74;1693559;85;21009;-77
2022/07/26 05:51:15;;;;;;;19.30;12.63;;;;;;;23.61;100.00;98608.83;1703769;84;21060;-79
2022/07/26 05:53:42;;;;;;;20.25;8.65;;;;;;;23.46;100.00;98617.52;1702945;84;21023;-76
2022/07/26 05:56:09;;;;;;;10.48;6.75;;;;;;;23.40;100.00;98614.53;1703543;84;21024;-74
2022/07/26 05:58:35;;;;;;;10.08;7.28;;;;;;;23.48;100.00;98621.37;1703933;84;20984;-80
2022/07/26 06:01:12;;;;;;;13.95;7.95;;;;;;;23.61;100.00;98620.67;1703492;84;21040;-78
2022/07/26 06:03:38;;;;;;;12.13;7.28;;;;;;;23.83;100.00;98622.97;1699853;84;21054;-78
2022/07/26 06:06:06;;;;;;;11.40;6.67;;;;;;;24.11;100.00;98623.19;1687407;84;21008;-86
2022/07/26 06:08:33;;;;;;;8.93;6.50;;;;;;;24.38;100.00;98639.69;1681592;84;21442;-85
2022/07/26 06:11:03;;;;;;;11.00;7.45;;;;;;;24.54;100.00;98665.20;1700909;84;21071;-86
2022/07/26 06:13:32;;;;;;;8.78;7.47;;;;;;;24.48;100.00;98688.48;1704248;84;21091;-83
2022/07/26 06:15:59;;;;;;;11.73;7.12;;;;;;;24.39;100.00;98700.73;1704036;84;21028;-85
2022/07/26 06:18:26;;;;;;;13.18;7.12;;;;;;;24.30;100.00;98703.89;1684645;83;21032;-84
2022/07/26 06:20:53;;;;;;;9.28;6.20;;;;;;;24.22;100.00;98703.96;1703466;84;21040;-87
2022/07/26 06:23:20;;;;;;;11.00;6.65;;;;;;;24.15;100.00;98699.34;1703161;83;21044;-82
2022/07/26 06:25:47;;;;;;;10.78;7.03;;;;;;;24.12;100.00;98700.77;1702791;82;21029;-82
2022/07/26 06:28:14;;;;;;;10.80;7.25;;;;;;;24.09;100.00;98696.39;1697748;84;21069;-83
2022/07/26 06:30:43;;;;;;;13.15;8.63;;;;;;;24.14;100.00;98688.88;1698387;83;21068;-80
2022/07/26 06:33:10;;;;;;;12.53;7.00;;;;;;;24.30;100.00;98678.47;1697383;84;21823;-83
2022/07/26 06:38:06;;;;;;;12.25;7.15;;;;;;;24.52;100.00;98700.57;1602367;90;21058;-88
2022/07/26 06:40:32;;;;;;;12.40;7.65;;;;;;;24.53;100.00;98703.08;1603472;86;21062;-86
2022/07/26 06:43:00;;;;;;;14.20;8.63;;;;;;;24.58;100.00;98711.88;1603474;90;21138;-89
2022/07/26 06:45:27;;;;;;;12.40;6.83;;;;;;;24.67;100.00;98706.51;1602927;90;21054;-89
2022/07/26 06:47:54;;;;;;;12.88;6.90;;;;;;;24.68;100.00;98723.34;1601700;90;21087;-80
2022/07/26 06:50:22;;;;;;;9.63;6.60;;;;;;;24.57;100.00;98738.66;1600745;90;21050;-85
2022/07/26 06:52:48;;;;;;;9.10;6.65;;;;;;;24.52;100.00;98729.02;1601027;90;21559;-81
2022/07/26 06:55:15;;;;;;;13.30;6.75;;;;;;;24.53;100.00;98727.94;1601441;90;21157;-86
2022/07/26 06:57:42;;;;;;;12.98;7.40;;;;;;;24.59;100.00;98719.02;1601339;90;21057;-83
2022/07/26 07:00:11;;;;;;;13.35;8.00;;;;;;;24.70;100.00;98719.71;1616415;88;21584;-83
2022/07/26 07:02:37;;;;;;;9.50;6.60;;;;;;;24.72;100.00;98724.38;1628006;88;21077;-86
2022/07/26 07:05:05;;;;;;;10.75;7.15;;;;;;;24.73;100.00;98726.84;1628092;88;21039;-81
2022/07/26 07:07:35;;;;;;;8.98;6.67;;;;;;;24.79;100.00;98718.77;1627643;88;21014;-81
2022/07/26 07:10:03;;;;;;;12.73;7.30;;;;;;;24.91;100.00;98714.16;1606759;88;21079;-80
2022/07/26 07:12:30;;;;;;;12.45;7.47;;;;;;;25.10;100.00;98720.27;1627499;88;21014;-79
2022/07/26 07:14:57;;;;;;;10.78;6.95;;;;;;;25.30;100.00;98724.16;1627491;88;21085;-80
2022/07/26 07:17:24;;;;;;;9.13;6.30;;;;;;;25.58;100.00;98727.02;1627382;88;21043;-78
2022/07/26 07:19:51;;;;;;;16.27;7.33;;;;;;;25.87;100.00;98735.65;1626843;88;21597;-80
2022/07/26 07:22:18;;;;;;;11.12;7.47;;;;;;;26.24;100.00;98733.89;1627611;88;21604;-79
2022/07/26 07:24:45;;;;;;;9.38;6.05;;;;;;;26.70;100.00;98745.47;1627626;88;21575;-79
2022/07/26 07:27:12;;;;;;;9.23;6.65;;;;;;;27.07;100.00;98779.08;1627509;88;21128;-82
2022/07/26 07:29:40;;;;;;;10.05;6.10;;;;;;;27.29;100.00;98799.72;1627012;88;21089;-80
2022/07/26 07:32:08;;;;;;;12.00;6.40;;;;;;;27.49;100.00;98806.74;1627488;88;21087;-79
2022/07/26 07:34:34;;;;;;;10.68;6.42;;;;;;;27.63;100.00;98831.69;1671371;82;21034;-84
2022/07/26 07:37:03;;;;;;;23.30;7.12;;;;;;;27.71;100.00;98848.16;1747318;82;21006;-81
2022/07/26 07:39:31;;;;;;;8.08;6.50;;;;;;;27.84;100.00;98865.36;1747089;82;21061;-82
2022/07/26 07:41:58;;;;;;;7.15;5.80;;;;;;;28.02;100.00;98880.23;1746821;82;21674;-83
2022/07/26 07:44:25;;;;;;;6.42;5.55;;;;;;;28.24;100.00;98888.30;1747620;82;21618;-79
2022/07/26 07:46:52;;;;;;;8.60;5.70;;;;;;;28.50;100.00;98906.55;1747109;82;21543;-82
2022/07/26 07:49:18;;;;;;;9.83;5.60;;;;;;;28.74;100.00;98915.39;1747026;82;21109;-81
2022/07/26 07:51:45;;;;;;;6.53;5.25;;;;;;;29.03;100.00;98933.52;1748412;82;21480;-83
2022/07/26 07:54:14;;;;;;;13.53;7.67;;;;;;;29.20;100.00;98967.60;1750326;82;21014;-82
2022/07/26 07:56:42;;;;;;;14.13;7.30;;;;;;;29.20;100.00;99188.04;1750863;82;21056;-83
2022/07/26 07:59:09;;;;;;;17.70;11.18;;;;;;;29.21;100.00;99225.30;1750639;82;21017;-80
2022/07/26 08:01:38;;;;;;;32.55;26.50;;;;;;;29.34;100.00;99231.95;1749064;82;21488;-81
2022/07/26 08:04:09;;;;;;;17.73;11.70;;;;;;;29.58;100.00;99216.90;1748375;82;21030;-85
2022/07/26 08:06:36;;;;;;;12.55;8.20;;;;;;;29.81;100.00;99238.04;1748426;81;21053;-79
2022/07/26 08:09:03;;;;;;;10.28;6.08;;;;;;;29.93;100.00;99245.01;1748293;82;21002;-85
2022/07/26 08:11:37;;;;;;;15.35;11.53;;;;;;;30.09;100.00;99244.84;1748066;82;21011;-82
2022/07/26 08:14:08;;;;;;;10.93;5.62;;;;;;;30.26;100.00;99241.28;1658309;86;21042;-79
2022/07/26 08:16:35;;;;;;;9.15;6.10;;;;;;;30.37;100.00;99253.84;1657973;85;21061;-75
2022/07/26 08:19:03;;;;;;;15.53;9.83;;;;;;;30.50;100.00;99261.84;1657153;86;21034;-76
2022/07/26 08:21:30;;;;;;;9.83;6.45;;;;;;;30.53;100.00;99261.75;1656187;86;21057;-74
2022/07/26 08:23:57;;;;;;;14.98;10.82;;;;;;;30.41;100.00;99260.41;1658377;86;21086;-78
2022/07/26 08:26:25;;;;;;;17.40;12.70;;;;;;;30.47;100.00;99249.92;1658746;86;21054;-74
2022/07/26 08:28:52;;;;;;;12.80;6.87;;;;;;;30.65;100.00;99249.40;1656745;86;21069;-77
2022/07/26 08:31:19;;;;;;;8.50;5.83;;;;;;;30.79;100.00;99254.30;1657152;86;21675;-77
2022/07/26 08:33:47;;;;;;;9.18;5.10;;;;;;;30.92;100.00;99255.33;1657271;86;21054;-79
2022/07/26 08:36:15;;;;;;;11.05;5.33;;;;;;;31.10;100.00;99262.34;1657691;86;21069;-79
2022/07/26 08:38:43;;;;;;;9.83;5.20;;;;;;;31.27;100.00;99258.71;1658426;86;21488;-85
2022/07/26 08:41:11;;;;;;;4.80;4.30;;;;;;;31.42;100.00;99263.23;1658071;86;21010;-81
2022/07/26 08:43:39;;;;;;;7.25;4.90;;;;;;;31.67;100.00;99262.75;1658671;85;21235;-82
2022/07/26 08:46:06;;;;;;;6.50;5.10;;;;;;;31.91;100.00;99256.64;1659192;86;20975;-79
2022/07/26 08:48:33;;;;;;;8.63;5.62;;;;;;;32.09;100.00;99256.84;1658436;86;21018;-79
2022/07/26 08:51:07;;;;;;;14.13;7.53;;;;;;;32.23;100.00;99255.80;1660067;86;21014;-79
2022/07/26 08:53:35;;;;;;;;;;;;;;;32.36;100.00;99256.97;1657687;85;21046;-79
2022/07/26 08:56:04;;;;;;;7.67;5.45;;;;;;;32.20;100.00;99269.07;1658115;86;20104;-77
2022/07/26 08:58:35;;;;;;;6.97;5.08;;;;;;;31.75;100.00;99273.11;1657908;86;21046;-79
2022/07/26 09:03:41;;;;;;;4.75;4.30;;;;;;;30.69;100.00;99260.73;1593303;90;21120;-78
2022/07/26 09:06:20;;;;;;;10.03;4.70;;;;;;;30.13;100.00;99268.13;1567546;92;21073;-81
2022/07/26 09:08:50;;;;;;;6.20;4.22;;;;;;;29.64;100.00;99266.59;1593590;90;21592;-83
2022/07/26 09:11:27;;;;;;;8.78;5.17;;;;;;;29.03;100.00;99267.44;1587978;90;21051;-79
2022/07/26 09:14:04;;;;;;;6.12;4.28;;;;;;;28.49;100.00;99268.57;1639731;87;21065;-79
2022/07/26 09:16:31;;;;;;;8.45;4.67;;;;;;;28.02;100.00;99275.56;1639643;87;21523;-77
2022/07/26 09:19:17;;;;;;;12.28;5.00;;;;;;;27.75;100.00;99276.87;1638490;87;21109;-81
2022/07/26 09:21:45;;;;;;;11.70;4.90;;;;;;;27.47;100.00;99280.92;1639712;87;21090;-78
2022/07/26 09:24:12;;;;;;;15.93;4.65;;;;;;;27.07;100.00;99287.30;1639232;87;21104;-78
2022/07/26 09:26:39;;;;;;;37.23;6.97;;;;;;;26.66;100.00;99290.05;1639337;87;21074;-80
2022/07/26 09:29:09;;;;;;;22.82;6.20;;;;;;;26.27;100.00;99284.66;1639229;87;21078;-83
2022/07/26 09:31:38;;;;;;;21.15;7.50;;;;;;;25.64;100.00;99225.44;1638776;87;21113;-79
2022/07/26 09:34:05;;;;;;;32.08;20.77;;;;;;;24.81;100.00;99169.87;1638600;87;21129;-77
2022/07/26 09:36:32;;;;;;;14.70;7.15;;;;;;;24.02;100.00;99091.55;1639485;87;21073;-80
2022/07/26 09:39:03;;;;;;;14.53;5.05;;;;;;;23.35;100.00;98987.46;1639461;87;21651;-82
2022/07/26 09:41:36;;;;;;;13.05;5.75;;;;;;;22.78;100.00;98933.00;1639854;87;21125;-79
2022/07/26 09:44:08;;;;;;;8.43;4.33;;;;;;;22.28;100.00;98900.55;1639671;87;21041;-81
2022/07/26 09:46:37;;;;;;;5.62;3.60;;;;;;;21.85;100.00;98875.72;1635763;87;21719;-78
2022/07/26 09:49:19;;;;;;;6.37;3.70;;;;;;;21.50;100.00;98861.65;1632484;87;21111;-78
2022/07/26 09:51:50;;;;;;;7.07;3.93;;;;;;;21.22;100.00;98845.86;1587772;90;21083;-78
2022/07/26 09:54:21;;;;;;;9.33;4.45;;;;;;;20.99;100.00;98831.23;1538031;93;21291;-78
2022/07/26 09:56:51;;;;;;;5.85;3.90;;;;;;;20.83;100.00;98818.79;1537392;91;21090;-77
2022/07/26 09:59:20;;;;;;;26.23;6.10;;;;;;;20.71;100.00;98796.77;1539767;91;21562;-81
2022/07/26 10:01:49;;;;;;;8.28;4.12;;;;;;;20.63;100.00;98779.71;1572694;91;21145;-83
2022/07/26 10:04:16;;;;;;;8.58;4.92;;;;;;;20.59;100.00;98775.83;1572619;91;21503;-82
2022/07/26 10:06:45;;;;;;;6.65;4.25;;;;;;;20.60;100.00;98762.91;1572126;91;21399;-81
2022/07/26 10:09:12;;;;;;;5.92;4.40;;;;;;;20.66;100.00;98743.48;1572541;91;21120;-79
2022/07/26 10:11:59;;;;;;;7.62;4.40;;;;;;;20.75;100.00;98723.19;1572201;91;21037;-80
2022/07/26 10:14:41;;;;;;;6.45;4.00;;;;;;;20.79;100.00;98704.25;1572726;91;21113;-82
2022/07/26 10:17:31;;;;;;;13.35;8.15;;;;;;;20.83;100.00;98698.48;1504687;95;21137;-77
2022/07/26 10:20:01;;;;;;;15.30;10.55;;;;;;;20.83;100.00;98695.17;1504965;95;21150;-78
2022/07/26 10:22:35;;;;;;;9.60;5.10;;;;;;;20.79;100.00;98699.56;1505422;95;21113;-79
2022/07/26 10:25:29;;;;;;;5.28;4.28;;;;;;;20.78;100.00;98703.95;1483707;96;21108;-80
2022/07/26 10:27:56;;;;;;;5.78;3.65;;;;;;;20.77;100.00;98699.55;1490306;95;21135;-78
2022/07/26 10:30:26;;;;;;;6.45;3.80;;;;;;;20.73;100.00;98693.77;1509640;95;21239;-79
2022/07/26 10:33:07;;;;;;;5.17;3.58;;;;;;;20.70;100.00;98693.48;1508538;95;21065;-80
2022/07/26 10:35:39;;;;;;;6.45;4.20;;;;;;;20.67;100.00;98698.42;1532388;94;21200;-75
2022/07/26 10:38:24;;;;;;;7.95;4.58;;;;;;;20.65;100.00;98700.63;1533556;94;21165;-75
2022/07/26 10:40:58;;;;;;;9.35;4.60;;;;;;;20.67;100.00;98700.36;1465272;98;21156;-75
2022/07/26 10:43:25;;;;;;;;;;;;;;;20.70;100.00;98689.36;1467736;98;21564;-73
2022/07/26 10:46:10;;;;;;;7.78;4.65;;;;;;;20.73;100.00;98688.83;1465223;98;20156;-74
2022/07/26 10:49:05;;;;;;;8.53;5.35;;;;;;;20.76;100.00;98682.25;1421832;101;21152;-73
2022/07/26 10:51:39;;;;;;;7.22;4.87;;;;;;;20.86;100.00;98680.09;1421909;101;21148;-75
2022/07/26 10:54:08;;;;;;;8.55;5.20;;;;;;;21.00;100.00;98674.86;1402291;102;21191;-75
2022/07/26 10:56:35;;;;;;;10.48;5.00;;;;;;;21.15;100.00;98674.07;1421510;101;21124;-75
2022/07/26 10:59:03;;;;;;;9.08;4.80;;;;;;;21.31;100.00;98674.91;1384418;102;21247;-75
2022/07/26 11:01:39;;;;;;;14.03;6.15;;;;;;;21.52;100.00;98668.32;1401432;102;21221;-74
2022/07/26 11:04:17;;;;;;;12.58;6.25;;;;;;;21.74;100.00;98674.06;1401560;102;21151;-75
2022/07/26 11:06:44;;;;;;;16.65;8.23;;;;;;;21.97;100.00;98678.98;1401470;101;21143;-73
2022/07/26 11:09:11;;;;;;;16.60;9.00;;;;;;;22.24;100.00;98679.70;1402909;102;21120;-74
2022/07/26 11:11:38;;;;;;;14.23;7.92;;;;;;;22.51;100.00;98681.56;1403983;102;21144;-72
2022/07/26 11:14:08;;;;;;;15.45;7.20;;;;;;;22.75;100.00;98692.74;1442644;97;21063;-76
2022/07/26 11:16:45;;;;;;;10.93;5.80;;;;;;;23.03;100.00;98701.94;1472138;98;21195;-75
2022/07/26 11:19:20;;;;;;;10.53;5.80;;;;;;;23.25;100.00;98735.45;1471571;97;21110;-78
2022/07/26 11:21:57;;;;;;;7.60;5.30;;;;;;;23.37;100.00;98772.31;1486964;96;21059;-75
2022/07/26 11:24:25;;;;;;;6.28;4.67;;;;;;;23.60;100.00;98785.97;1485090;96;21108;-73
2022/07/26 11:26:52;;;;;;;8.28;5.47;;;;;;;23.80;100.00;98813.98;1577665;90;21079;-77
2022/07/26 11:29:33;;;;;;;10.30;5.28;;;;;;;23.85;100.00;98869.14;1595449;90;21639;-76
2022/07/26 11:32:05;;;;;;;9.68;4.05;;;;;;;23.84;100.00;98896.46;1588917;90;21091;-76
2022/07/26 11:34:36;;;;;;;8.45;3.90;;;;;;;23.86;100.00;98909.42;1449696;97;21158;-79
2022/07/26 11:37:03;;;;;;;5.85;3.55;;;;;;;23.80;100.00;98934.03;1480948;94;21081;-77